createdAt,value
2019-02-02T00:01:02.630Z,55.03
2019-02-02T00:03:31.937Z,55.17
2019-02-02T00:06:01.230Z,57.43
2019-02-02T00:08:30.526Z,56.53
2019-02-02T00:10:59.972Z,60.20
2019-02-02T00:13:40.246Z,58.80
2019-02-02T00:16:09.370Z,62.53
2019-02-02T00:18:38.674Z,57.97
2019-02-02T00:21:08.134Z,57.50
2019-02-02T00:23:37.534Z,53.90
2019-02-02T00:26:06.943Z,59.27
2019-02-02T00:28:36.375Z,58.27
2019-02-02T00:31:05.756Z,58.80
2019-02-02T00:33:35.008Z,63.47
2019-02-02T00:36:04.251Z,64.83
2019-02-02T00:38:35.147Z,65.70
2019-02-02T00:41:04.425Z,59.97
2019-02-02T00:43:33.723Z,57.53
2019-02-02T00:46:03.037Z,63.83
2019-02-02T00:48:32.336Z,66.13
2019-02-02T00:51:01.604Z,57.23
2019-02-02T00:53:30.895Z,59.53
2019-02-02T00:56:00.214Z,63.50
2019-02-02T00:58:29.531Z,59.00
2019-02-02T01:00:58.836Z,56.90
2019-02-02T01:03:28.119Z,58.03
2019-02-02T01:05:57.535Z,61.30
2019-02-02T01:08:26.854Z,53.30
2019-02-02T01:10:56.185Z,55.17
2019-02-02T01:13:26.214Z,56.27
2019-02-02T01:15:55.535Z,58.53
2019-02-02T01:18:24.861Z,67.67
2019-02-02T01:20:54.248Z,56.90
2019-02-02T01:23:23.666Z,61.50
2019-02-02T01:25:52.991Z,57.37
2019-02-02T01:28:22.268Z,58.83
2019-02-02T01:30:51.613Z,59.07
2019-02-02T01:33:20.887Z,56.87
2019-02-02T01:35:50.176Z,58.93
2019-02-02T01:38:19.483Z,58.43
2019-02-02T01:40:48.793Z,54.67
2019-02-02T01:43:18.047Z,54.80
2019-02-02T01:45:47.344Z,59.73
2019-02-02T01:48:16.627Z,53.03
2019-02-02T01:50:45.993Z,58.83
2019-02-02T01:53:15.241Z,60.40
2019-02-02T01:55:44.514Z,60.80
2019-02-02T01:58:17.027Z,57.53
2019-02-02T02:00:44.289Z,63.33
2019-02-02T02:03:13.490Z,54.37
2019-02-02T02:05:42.745Z,59.67
2019-02-02T02:08:12.009Z,57.60
2019-02-02T02:10:41.266Z,59.53
2019-02-02T02:13:12.441Z,60.20
2019-02-02T02:15:42.012Z,56.60
2019-02-02T02:18:11.338Z,58.43
2019-02-02T02:20:40.589Z,54.57
2019-02-02T02:23:09.879Z,60.27
2019-02-02T02:25:39.149Z,60.53
2019-02-02T02:28:08.499Z,60.70
2019-02-02T02:30:37.839Z,57.27
2019-02-02T02:33:07.143Z,61.97
2019-02-02T02:35:36.395Z,56.77
2019-02-02T02:38:05.696Z,65.63
2019-02-02T02:40:34.991Z,61.00
2019-02-02T02:43:04.278Z,63.90
2019-02-02T02:45:33.685Z,58.07
2019-02-02T02:48:02.851Z,56.00
2019-02-02T02:50:32.145Z,65.07
2019-02-02T02:53:01.471Z,61.17
2019-02-02T02:55:30.751Z,62.20
2019-02-02T02:58:00.189Z,59.53
2019-02-02T03:00:29.721Z,58.40
2019-02-02T03:02:58.787Z,59.80
2019-02-02T03:05:28.071Z,60.93
2019-02-02T03:07:57.339Z,59.97
2019-02-02T03:10:26.653Z,63.50
2019-02-02T03:12:55.959Z,62.63
2019-02-02T03:15:25.262Z,62.17
2019-02-02T03:17:54.567Z,63.83
2019-02-02T03:20:23.901Z,63.17
2019-02-02T03:22:53.206Z,60.10
2019-02-02T03:25:23.851Z,60.27
2019-02-02T03:27:53.242Z,65.07
2019-02-02T03:30:22.577Z,60.10
2019-02-02T03:32:51.901Z,63.53
2019-02-02T03:35:22.434Z,60.53
2019-02-02T03:37:51.606Z,62.10
2019-02-02T03:40:21.895Z,65.17
2019-02-02T03:42:51.146Z,57.73
2019-02-02T03:45:22.602Z,61.90
2019-02-02T03:47:52.801Z,66.13
2019-02-02T03:50:22.138Z,58.53
2019-02-02T03:52:51.435Z,65.40
2019-02-02T03:55:20.969Z,64.67
2019-02-02T03:57:50.308Z,67.40
2019-02-02T04:00:20.786Z,63.50
2019-02-02T04:02:50.263Z,65.63
2019-02-02T04:05:21.671Z,59.53
2019-02-02T04:07:50.985Z,65.17
2019-02-02T04:10:20.237Z,64.40
2019-02-02T04:12:49.551Z,59.87
2019-02-02T04:15:18.889Z,60.90
2019-02-02T04:17:48.261Z,68.60
2019-02-02T04:20:19.473Z,59.90
2019-02-02T04:22:48.971Z,65.27
2019-02-02T04:25:19.091Z,61.47
2019-02-02T04:27:48.377Z,58.20
2019-02-02T04:30:19.929Z,62.40
2019-02-02T04:32:49.906Z,60.43
2019-02-02T04:35:20.534Z,58.97
2019-02-02T04:37:49.983Z,66.00
2019-02-02T04:40:19.216Z,65.27
2019-02-02T04:42:48.516Z,60.63
2019-02-02T04:45:17.811Z,60.83
2019-02-02T04:47:47.154Z,61.47
2019-02-02T04:50:17.009Z,68.00
2019-02-02T04:52:46.386Z,61.20
2019-02-02T04:55:16.757Z,65.70
2019-02-02T04:57:46.028Z,60.67
2019-02-02T05:00:20.575Z,64.53
2019-02-02T05:02:49.922Z,67.40
2019-02-02T05:05:19.331Z,59.40
2019-02-02T05:07:48.617Z,61.33
2019-02-02T05:10:19.242Z,62.73
2019-02-02T05:12:48.764Z,60.77
2019-02-02T05:15:18.050Z,66.93
2019-02-02T05:17:47.356Z,63.47
2019-02-02T05:20:16.757Z,73.17
2019-02-02T05:22:46.039Z,69.17
2019-02-02T05:25:15.310Z,68.27
2019-02-02T05:27:44.581Z,61.97
2019-02-02T05:30:16.716Z,66.77
2019-02-02T05:32:45.960Z,59.87
2019-02-02T05:35:15.295Z,65.87
2019-02-02T05:37:44.553Z,69.37
2019-02-02T05:40:15.073Z,66.07
2019-02-02T05:42:44.409Z,69.80
2019-02-02T05:45:15.319Z,64.20
2019-02-02T05:47:44.632Z,63.00
2019-02-02T05:50:15.661Z,62.47
2019-02-02T05:52:45.021Z,73.37
2019-02-02T05:55:15.170Z,68.03
2019-02-02T05:57:44.595Z,67.10
2019-02-02T06:00:20.363Z,70.20
2019-02-02T06:02:49.810Z,65.83
2019-02-02T06:05:19.094Z,66.00
2019-02-02T06:07:48.405Z,62.93
2019-02-02T06:10:17.723Z,71.57
2019-02-02T06:12:47.014Z,67.10
2019-02-02T06:15:16.439Z,69.10
2019-02-02T06:17:45.778Z,74.87
2019-02-02T06:20:15.065Z,70.40
2019-02-02T06:22:44.325Z,67.70
2019-02-02T06:25:13.658Z,74.80
2019-02-02T06:27:42.922Z,73.43
2019-02-02T06:30:14.671Z,71.53
2019-02-02T06:32:43.969Z,69.10
2019-02-02T06:35:14.442Z,74.17
2019-02-02T06:37:43.756Z,69.03
2019-02-02T06:40:13.526Z,71.33
2019-02-02T06:42:42.793Z,63.70
2019-02-02T06:45:15.189Z,73.90
2019-02-02T06:47:44.525Z,71.13
2019-02-02T06:50:15.070Z,73.80
2019-02-02T06:52:44.333Z,70.93
2019-02-02T06:55:14.873Z,75.03
2019-02-02T06:57:44.284Z,68.93
2019-02-02T07:00:16.472Z,76.33
2019-02-02T07:02:45.539Z,67.47
2019-02-02T07:05:14.810Z,73.30
2019-02-02T07:07:44.099Z,68.20
2019-02-02T07:10:16.811Z,78.17
2019-02-02T07:12:46.131Z,68.93
2019-02-02T07:15:16.331Z,76.93
2019-02-02T07:17:45.613Z,78.80
2019-02-02T07:20:14.973Z,71.43
2019-02-02T07:22:44.234Z,73.47
2019-02-02T07:25:13.507Z,76.83
2019-02-02T07:27:42.860Z,68.50
2019-02-02T07:30:28.084Z,74.43
2019-02-02T07:32:46.705Z,69.77
2019-02-02T07:35:16.039Z,73.70
2019-02-02T07:37:45.361Z,76.20
2019-02-02T07:40:15.512Z,71.47
2019-02-02T07:42:44.905Z,78.83
2019-02-02T07:45:22.946Z,72.30
2019-02-02T07:47:52.404Z,69.97
2019-02-02T07:50:21.741Z,83.27
2019-02-02T07:52:51.008Z,74.57
2019-02-02T07:55:20.425Z,76.70
2019-02-02T07:57:49.727Z,72.43
2019-02-02T08:00:27.347Z,68.97
2019-02-02T08:02:56.670Z,71.83
2019-02-02T08:05:26.067Z,73.47
2019-02-02T08:07:55.357Z,76.20
2019-02-02T08:10:24.643Z,67.37
2019-02-02T08:12:55.518Z,72.30
2019-02-02T08:15:26.815Z,70.00
2019-02-02T08:17:56.093Z,72.23
2019-02-02T08:20:25.405Z,75.30
2019-02-02T08:22:56.625Z,74.43
2019-02-02T08:25:24.035Z,73.53
2019-02-02T08:27:53.295Z,69.63
2019-02-02T08:30:24.760Z,71.87
2019-02-02T08:32:54.019Z,72.50
2019-02-02T08:35:23.376Z,78.17
2019-02-02T08:37:52.739Z,79.70
2019-02-02T08:40:22.063Z,74.77
2019-02-02T08:42:51.396Z,76.37
2019-02-02T08:45:20.675Z,77.10
2019-02-02T08:47:50.002Z,83.03
2019-02-02T08:50:28.096Z,73.83
2019-02-02T08:52:57.383Z,82.17
2019-02-02T08:55:26.760Z,71.43
2019-02-02T08:57:56.081Z,73.43
2019-02-02T09:00:25.313Z,73.03
2019-02-02T09:02:54.632Z,70.93
2019-02-02T09:05:23.974Z,74.53
2019-02-02T09:07:53.229Z,80.10
2019-02-02T09:10:24.470Z,77.87
2019-02-02T09:12:53.869Z,78.93
2019-02-02T09:15:23.231Z,81.47
2019-02-02T09:17:52.576Z,78.47
2019-02-02T09:20:21.827Z,79.17
2019-02-02T09:23:02.691Z,74.93
2019-02-02T09:25:20.540Z,79.60
2019-02-02T09:27:49.871Z,81.77
2019-02-02T09:30:36.325Z,84.57
2019-02-02T09:33:06.256Z,79.13
2019-02-02T09:35:35.549Z,82.83
2019-02-02T09:38:05.255Z,81.67
2019-02-02T09:40:34.577Z,74.60
2019-02-02T09:43:03.911Z,79.47
2019-02-02T09:45:33.271Z,76.80
2019-02-02T09:48:02.703Z,76.27
2019-02-02T09:50:32.118Z,73.70
2019-02-02T09:53:01.429Z,91.20
2019-02-02T09:55:30.776Z,75.23
2019-02-02T09:58:03.114Z,81.23
2019-02-02T10:00:32.964Z,80.33
2019-02-02T10:03:02.281Z,79.10
2019-02-02T10:05:31.843Z,78.03
2019-02-02T10:08:01.105Z,85.07
2019-02-02T10:10:32.167Z,82.73
2019-02-02T10:13:01.535Z,108.07
2019-02-02T10:15:30.896Z,86.83
2019-02-02T10:18:00.229Z,83.80
2019-02-02T10:20:30.248Z,82.13
2019-02-02T10:22:59.848Z,75.87
2019-02-02T10:25:30.225Z,79.80
2019-02-02T10:27:59.547Z,83.50
2019-02-02T10:30:33.741Z,78.83
2019-02-02T10:33:03.055Z,83.10
2019-02-02T10:35:32.542Z,85.97
2019-02-02T10:38:01.802Z,84.43
2019-02-02T10:40:31.122Z,89.53
2019-02-02T10:43:00.443Z,79.13
2019-02-02T10:45:29.757Z,79.43
2019-02-02T10:47:59.089Z,89.33
2019-02-02T10:50:28.391Z,87.70
2019-02-02T10:52:57.714Z,91.43
2019-02-02T10:55:27.046Z,86.97
2019-02-02T10:57:56.533Z,85.53
2019-02-02T11:00:30.934Z,89.23
2019-02-02T11:03:00.232Z,86.07
2019-02-02T11:05:29.727Z,86.63
2019-02-02T11:07:58.952Z,87.40
2019-02-02T11:10:29.663Z,86.87
2019-02-02T11:12:59.005Z,86.23
2019-02-02T11:15:28.230Z,85.07
2019-02-02T11:17:57.621Z,96.13
2019-02-02T11:20:31.325Z,89.03
2019-02-02T11:23:00.489Z,90.20
2019-02-02T11:25:29.983Z,89.53
2019-02-02T11:27:59.388Z,90.90
2019-02-02T11:30:29.092Z,91.30
2019-02-02T11:32:58.321Z,90.93
2019-02-02T11:35:27.603Z,80.57
2019-02-02T11:37:57.035Z,94.77
2019-02-02T11:40:28.421Z,93.23
2019-02-02T11:42:57.713Z,91.70
2019-02-02T11:45:27.020Z,93.50
2019-02-02T11:47:56.389Z,99.40
2019-02-02T11:50:25.679Z,97.20
2019-02-02T11:52:55.007Z,100.13
2019-02-02T11:55:24.545Z,97.27
2019-02-02T11:57:53.692Z,95.10
2019-02-02T12:00:25.443Z,91.63
2019-02-02T12:02:54.781Z,91.23
2019-02-02T12:05:24.181Z,93.43
2019-02-02T12:07:53.425Z,97.23
2019-02-02T12:10:23.985Z,101.63
2019-02-02T12:12:53.320Z,101.07
2019-02-02T12:15:22.705Z,99.63
2019-02-02T12:17:51.983Z,98.63
2019-02-02T12:20:21.521Z,92.20
2019-02-02T12:22:50.893Z,99.90
2019-02-02T12:25:20.275Z,114.67
2019-02-02T12:27:49.723Z,108.97
2019-02-02T12:30:21.050Z,91.80
2019-02-02T12:32:50.423Z,96.10
2019-02-02T12:35:21.089Z,101.13
2019-02-02T12:37:50.438Z,92.47
2019-02-02T12:40:20.139Z,105.37
2019-02-02T12:42:49.505Z,95.60
2019-02-02T12:45:21.635Z,99.17
2019-02-02T12:47:51.015Z,100.43
2019-02-02T12:50:20.399Z,103.37
2019-02-02T12:52:49.748Z,104.20
2019-02-02T12:55:19.061Z,99.33
2019-02-02T12:57:48.461Z,104.43
2019-02-02T13:00:18.581Z,97.67
2019-02-02T13:02:47.879Z,95.97
2019-02-02T13:05:20.207Z,100.03
2019-02-02T13:07:49.697Z,103.20
2019-02-02T13:10:20.965Z,112.80
2019-02-02T13:12:50.331Z,116.87
2019-02-02T13:15:19.643Z,109.97
2019-02-02T13:17:49.021Z,111.70
2019-02-02T13:20:18.291Z,108.03
2019-02-02T13:22:47.736Z,106.50
2019-02-02T13:25:18.495Z,111.17
2019-02-02T13:27:47.967Z,104.20
2019-02-02T13:30:25.363Z,99.60
2019-02-02T13:32:54.650Z,111.77
2019-02-02T13:35:24.152Z,108.37
2019-02-02T13:37:53.703Z,99.80
2019-02-02T13:40:23.063Z,103.73
2019-02-02T13:42:52.420Z,109.10
2019-02-02T13:45:21.767Z,107.10
2019-02-02T13:47:51.125Z,102.50
2019-02-02T13:50:20.528Z,102.30
2019-02-02T13:52:49.912Z,102.50
2019-02-02T13:55:19.292Z,113.63
2019-02-02T13:57:48.587Z,115.60
2019-02-02T14:00:23.258Z,107.67
2019-02-02T14:03:02.038Z,111.13
2019-02-02T14:05:22.035Z,118.67
2019-02-02T14:07:54.497Z,108.30
2019-02-02T14:10:25.675Z,118.67
2019-02-02T14:12:55.073Z,117.43
2019-02-02T14:15:24.437Z,118.00
2019-02-02T14:17:53.912Z,125.77
2019-02-02T14:20:23.265Z,107.33
2019-02-02T14:22:52.626Z,125.13
2019-02-02T14:25:21.962Z,124.87
2019-02-02T14:27:51.405Z,122.40
2019-02-02T14:30:22.348Z,128.07
2019-02-02T14:32:54.686Z,131.87
2019-02-02T14:35:22.414Z,120.30
2019-02-02T14:37:51.810Z,121.70
2019-02-02T14:40:21.289Z,129.73
2019-02-02T14:42:50.629Z,137.03
2019-02-02T14:45:21.149Z,122.80
2019-02-02T14:47:50.961Z,133.33
2019-02-02T14:50:21.051Z,128.73
2019-02-02T14:52:51.224Z,129.57
2019-02-02T14:55:25.874Z,142.93
2019-02-02T14:57:55.281Z,129.50
2019-02-02T15:00:26.487Z,136.63
2019-02-02T15:02:55.955Z,131.77
2019-02-02T15:05:25.274Z,128.57
2019-02-02T15:07:54.566Z,125.63
2019-02-02T15:10:24.574Z,130.37
2019-02-02T15:12:53.964Z,139.47
2019-02-02T15:15:23.365Z,130.57
2019-02-02T15:17:52.744Z,139.63
2019-02-02T15:20:36.219Z,134.90
2019-02-02T15:23:06.091Z,135.93
2019-02-02T15:25:35.553Z,139.10
2019-02-02T15:28:05.099Z,122.50
2019-02-02T15:30:35.176Z,142.13
2019-02-02T15:33:04.885Z,140.60
2019-02-02T15:35:34.220Z,140.57
2019-02-02T15:38:03.646Z,132.63
2019-02-02T15:40:33.054Z,144.73
2019-02-02T15:43:02.315Z,141.17
2019-02-02T15:45:31.798Z,144.90
2019-02-02T15:48:01.173Z,146.87
2019-02-02T15:50:30.478Z,142.53
2019-02-02T15:52:59.853Z,135.73
2019-02-02T15:55:29.253Z,143.40
2019-02-02T15:57:58.603Z,135.33
2019-02-02T16:00:30.044Z,146.73
2019-02-02T16:02:59.539Z,144.20
2019-02-02T16:05:28.998Z,148.03
2019-02-02T16:07:59.709Z,144.93
2019-02-02T16:10:30.045Z,150.27
2019-02-02T16:12:59.329Z,135.83
2019-02-02T16:15:28.754Z,154.43
2019-02-02T16:17:58.076Z,142.40
2019-02-02T16:20:29.741Z,141.10
2019-02-02T16:22:59.114Z,149.83
2019-02-02T16:25:28.444Z,151.37
2019-02-02T16:27:57.904Z,143.83
2019-02-02T16:30:27.774Z,156.13
2019-02-02T16:32:57.078Z,152.57
2019-02-02T16:35:26.360Z,156.80
2019-02-02T16:37:55.807Z,148.17
2019-02-02T16:40:26.645Z,153.53
2019-02-02T16:42:55.953Z,152.03
2019-02-02T16:45:27.045Z,148.80
2019-02-02T16:47:56.443Z,162.10
2019-02-02T16:50:25.865Z,144.40
2019-02-02T16:52:55.269Z,147.43
2019-02-02T16:55:24.532Z,152.97
2019-02-02T16:57:53.838Z,148.37
2019-02-02T17:00:27.878Z,148.60
2019-02-02T17:02:57.235Z,153.33
2019-02-02T17:05:26.705Z,153.13
2019-02-02T17:07:56.015Z,148.03
2019-02-02T17:10:27.365Z,144.30
2019-02-02T17:12:56.724Z,148.23
2019-02-02T17:15:26.039Z,149.77
2019-02-02T17:17:55.519Z,154.53
2019-02-02T17:20:27.229Z,149.03
2019-02-02T17:22:56.606Z,140.83
2019-02-02T17:25:25.928Z,141.23
2019-02-02T17:27:55.301Z,147.30
2019-02-02T17:30:24.731Z,150.40
2019-02-02T17:32:55.556Z,149.63
2019-02-02T17:35:24.984Z,149.30
2019-02-02T17:37:54.245Z,153.60
2019-02-02T17:40:25.425Z,157.27
2019-02-02T17:42:54.717Z,154.93
2019-02-02T17:45:24.085Z,166.47
2019-02-02T17:47:53.370Z,161.40
2019-02-02T17:50:23.644Z,162.00
2019-02-02T17:52:53.023Z,165.77
2019-02-02T17:55:22.335Z,176.23
2019-02-02T17:57:51.644Z,169.20
2019-02-02T18:00:40.998Z,166.50
2019-02-02T18:03:10.396Z,174.37
2019-02-02T18:05:39.733Z,178.13
2019-02-02T18:08:09.049Z,172.20
2019-02-02T18:10:38.389Z,170.33
2019-02-02T18:13:07.917Z,165.73
2019-02-02T18:15:37.235Z,173.07
2019-02-02T18:18:06.613Z,188.37
2019-02-02T18:20:35.912Z,181.90
2019-02-02T18:23:05.197Z,185.33
2019-02-02T18:25:34.497Z,180.90
2019-02-02T18:28:03.886Z,186.40
2019-02-02T18:30:33.206Z,182.43
2019-02-02T18:33:02.500Z,185.63
2019-02-02T18:35:31.781Z,191.00
2019-02-02T18:38:01.111Z,188.27
2019-02-02T18:40:30.411Z,194.43
2019-02-02T18:42:59.782Z,195.13
2019-02-02T18:45:29.242Z,204.23
2019-02-02T18:47:58.567Z,198.33
2019-02-02T18:50:27.874Z,203.83
2019-02-02T18:52:57.274Z,201.40
2019-02-02T18:55:33.030Z,212.17
2019-02-02T18:58:02.374Z,230.83
2019-02-02T19:00:31.707Z,212.07
2019-02-02T19:03:01.001Z,207.27
2019-02-02T19:05:30.252Z,218.30
2019-02-02T19:07:59.601Z,226.73
2019-02-02T19:10:30.939Z,212.83
2019-02-02T19:13:00.272Z,230.63
2019-02-02T19:15:29.561Z,224.70
2019-02-02T19:17:58.943Z,237.80
2019-02-02T19:20:28.224Z,220.73
2019-02-02T19:22:57.529Z,215.67
2019-02-02T19:25:26.815Z,225.27
2019-02-02T19:27:56.113Z,222.53
2019-02-02T19:30:27.753Z,227.03
2019-02-02T19:32:57.108Z,224.03
2019-02-02T19:35:26.491Z,200.10
2019-02-02T19:37:55.773Z,212.63
2019-02-02T19:40:25.067Z,221.13
2019-02-02T19:42:54.399Z,223.80
2019-02-02T19:45:24.705Z,214.50
2019-02-02T19:47:54.021Z,222.60
2019-02-02T19:50:25.259Z,208.87
2019-02-02T19:52:54.802Z,230.70
2019-02-02T19:55:24.234Z,222.60
2019-02-02T19:57:53.689Z,216.30
2019-02-02T20:00:30.729Z,219.80
2019-02-02T20:03:00.512Z,231.77
2019-02-02T20:05:29.817Z,208.07
2019-02-02T20:07:59.211Z,206.30
2019-02-02T20:10:28.518Z,210.67
2019-02-02T20:12:57.796Z,216.87
2019-02-02T20:15:27.250Z,214.87
2019-02-02T20:18:08.856Z,225.27
2019-02-02T20:20:26.561Z,233.87
2019-02-02T20:22:56.252Z,221.23
2019-02-02T20:25:25.881Z,220.87
2019-02-02T20:27:55.254Z,221.87
2019-02-02T20:30:26.801Z,230.27
2019-02-02T20:32:56.103Z,220.80
2019-02-02T20:35:25.434Z,223.37
2019-02-02T20:37:54.808Z,234.20
2019-02-02T20:40:24.934Z,219.80
2019-02-02T20:42:54.450Z,216.47
2019-02-02T20:45:28.443Z,217.20
2019-02-02T20:47:57.743Z,228.93
2019-02-02T20:50:27.053Z,213.60
2019-02-02T20:52:56.400Z,220.73
2019-02-02T20:55:31.276Z,221.00
2019-02-02T20:58:00.626Z,219.60
2019-02-02T21:00:30.040Z,230.83
2019-02-02T21:02:59.367Z,243.73
2019-02-02T21:05:31.622Z,238.23
2019-02-02T21:07:58.005Z,228.40
2019-02-02T21:10:27.412Z,233.27
2019-02-02T21:12:56.713Z,217.30
2019-02-02T21:15:25.985Z,251.27
2019-02-02T21:17:55.341Z,223.87
2019-02-02T21:20:26.483Z,214.60
2019-02-02T21:22:55.828Z,233.97
2019-02-02T21:25:25.370Z,219.67
2019-02-02T21:27:54.793Z,216.27
2019-02-02T21:30:29.106Z,208.93
2019-02-02T21:32:58.499Z,226.10
2019-02-02T21:35:27.775Z,212.07
2019-02-02T21:37:57.135Z,203.30
2019-02-02T21:40:28.377Z,205.67
2019-02-02T21:42:57.778Z,215.53
2019-02-02T21:45:27.059Z,201.70
2019-02-02T21:47:56.368Z,205.30
2019-02-02T21:50:25.798Z,215.83
2019-02-02T21:52:55.172Z,210.93
2019-02-02T21:55:26.206Z,212.13
2019-02-02T21:57:55.683Z,198.70
2019-02-02T22:00:29.825Z,210.10
2019-02-02T22:02:59.209Z,205.67
2019-02-02T22:05:28.553Z,195.10
2019-02-02T22:07:57.864Z,194.63
2019-02-02T22:10:27.272Z,207.23
2019-02-02T22:12:56.513Z,189.23
2019-02-02T22:15:25.937Z,199.37
2019-02-02T22:17:55.297Z,197.77
2019-02-02T22:20:24.643Z,196.00
2019-02-02T22:22:54.127Z,187.10
2019-02-02T22:25:25.626Z,181.97
2019-02-02T22:27:54.897Z,206.17
2019-02-02T22:30:26.389Z,193.53
2019-02-02T22:32:55.743Z,192.20
2019-02-02T22:35:25.027Z,202.07
2019-02-02T22:37:54.377Z,195.13
2019-02-02T22:40:24.545Z,185.60
2019-02-02T22:42:53.821Z,168.90
2019-02-02T22:45:23.208Z,136.53
2019-02-02T22:47:52.515Z,189.83
2019-02-02T22:50:23.452Z,185.60
2019-02-02T22:52:52.772Z,193.07
2019-02-02T22:55:22.233Z,192.00
2019-02-02T22:57:51.714Z,200.57
2019-02-02T23:00:54.999Z,191.90
2019-02-02T23:03:28.243Z,190.17
2019-02-02T23:06:38.537Z,182.53
2019-02-02T23:09:57.029Z,185.93
2019-02-02T23:12:52.993Z,193.00
2019-02-02T23:16:08.870Z,176.27
2019-02-02T23:18:38.204Z,179.20
2019-02-02T23:21:07.505Z,183.83
2019-02-02T23:23:36.797Z,178.90
2019-02-02T23:26:06.131Z,183.37
2019-02-02T23:28:35.493Z,183.50
2019-02-02T23:31:04.760Z,186.53
2019-02-02T23:33:34.113Z,177.10
2019-02-02T23:36:03.537Z,173.60
2019-02-02T23:38:32.904Z,190.63
2019-02-02T23:41:02.382Z,181.53
2019-02-02T23:43:31.699Z,196.83
2019-02-02T23:46:01.046Z,199.67
2019-02-02T23:48:30.335Z,180.50
2019-02-02T23:50:59.684Z,187.13
2019-02-02T23:53:29.034Z,185.53
2019-02-02T23:55:58.346Z,201.50
2019-02-02T23:58:27.703Z,193.60
